sensor_id;sensor_type;location;lat;lon;timestamp;P1;durP1;ratioP1;P2;durP2;ratioP2
23290;SDS011;11814;44.686;10.842;2023-09-08T00:02:22;11.27;;;8.77;;
23290;SDS011;11814;44.686;10.842;2023-09-08T00:04:49;14.75;;;8.30;;
23290;SDS011;11814;44.686;10.842;2023-09-08T00:07:14;13.15;;;9.35;;
23290;SDS011;11814;44.686;10.842;2023-09-08T00:09:40;13.68;;;8.13;;
23290;SDS011;11814;44.686;10.842;2023-09-08T00:12:05;12.50;;;7.93;;
23290;SDS011;11814;44.686;10.842;2023-09-08T00:14:31;11.88;;;8.15;;
23290;SDS011;11814;44.686;10.842;2023-09-08T00:16:57;12.65;;;9.52;;
23290;SDS011;11814;44.686;10.842;2023-09-08T00:19:22;14.88;;;9.52;;
23290;SDS011;11814;44.686;10.842;2023-09-08T00:21:48;13.43;;;9.32;;
23290;SDS011;11814;44.686;10.842;2023-09-08T00:24:14;14.50;;;9.63;;
23290;SDS011;11814;44.686;10.842;2023-09-08T00:26:40;11.88;;;9.18;;
23290;SDS011;11814;44.686;10.842;2023-09-08T00:29:06;17.83;;;9.75;;
23290;SDS011;11814;44.686;10.842;2023-09-08T00:31:32;15.40;;;9.50;;
23290;SDS011;11814;44.686;10.842;2023-09-08T00:33:58;11.98;;;9.10;;
23290;SDS011;11814;44.686;10.842;2023-09-08T00:36:24;15.63;;;9.50;;
23290;SDS011;11814;44.686;10.842;2023-09-08T00:38:49;14.52;;;9.48;;
23290;SDS011;11814;44.686;10.842;2023-09-08T00:41:15;12.50;;;10.40;;
23290;SDS011;11814;44.686;10.842;2023-09-08T00:43:41;17.13;;;10.80;;
23290;SDS011;11814;44.686;10.842;2023-09-08T00:46:06;14.23;;;11.20;;
23290;SDS011;11814;44.686;10.842;2023-09-08T00:48:33;16.00;;;11.07;;
23290;SDS011;11814;44.686;10.842;2023-09-08T00:51:00;14.20;;;12.45;;
23290;SDS011;11814;44.686;10.842;2023-09-08T00:53:25;16.30;;;11.77;;
23290;SDS011;11814;44.686;10.842;2023-09-08T00:55:51;18.70;;;12.60;;
23290;SDS011;11814;44.686;10.842;2023-09-08T00:58:18;20.10;;;12.88;;
23290;SDS011;11814;44.686;10.842;2023-09-08T01:00:43;15.75;;;11.82;;
23290;SDS011;11814;44.686;10.842;2023-09-08T01:03:10;19.00;;;12.02;;
23290;SDS011;11814;44.686;10.842;2023-09-08T01:05:37;14.63;;;12.75;;
23290;SDS011;11814;44.686;10.842;2023-09-08T01:08:02;16.58;;;12.23;;
23290;SDS011;11814;44.686;10.842;2023-09-08T01:10:29;16.52;;;12.65;;
23290;SDS011;11814;44.686;10.842;2023-09-08T01:12:55;14.48;;;12.65;;
23290;SDS011;11814;44.686;10.842;2023-09-08T01:15:20;14.38;;;11.38;;
23290;SDS011;11814;44.686;10.842;2023-09-08T01:17:46;13.45;;;12.05;;
23290;SDS011;11814;44.686;10.842;2023-09-08T01:25:18;18.05;;;13.05;;
23290;SDS011;11814;44.686;10.842;2023-09-08T01:27:46;16.92;;;12.23;;
23290;SDS011;11814;44.686;10.842;2023-09-08T01:30:15;16.45;;;12.88;;
23290;SDS011;11814;44.686;10.842;2023-09-08T01:32:43;23.80;;;12.65;;
23290;SDS011;11814;44.686;10.842;2023-09-08T01:35:09;14.80;;;12.27;;
23290;SDS011;11814;44.686;10.842;2023-09-08T01:37:36;14.13;;;11.38;;
23290;SDS011;11814;44.686;10.842;2023-09-08T01:40:06;15.77;;;12.57;;
23290;SDS011;11814;44.686;10.842;2023-09-08T01:42:32;13.75;;;11.40;;
23290;SDS011;11814;44.686;10.842;2023-09-08T01:44:57;15.05;;;12.27;;
23290;SDS011;11814;44.686;10.842;2023-09-08T01:47:24;13.73;;;11.27;;
23290;SDS011;11814;44.686;10.842;2023-09-08T01:49:49;12.77;;;11.05;;
23290;SDS011;11814;44.686;10.842;2023-09-08T01:52:15;14.80;;;11.35;;
23290;SDS011;11814;44.686;10.842;2023-09-08T01:54:41;13.75;;;11.75;;
23290;SDS011;11814;44.686;10.842;2023-09-08T01:57:06;13.68;;;10.80;;
23290;SDS011;11814;44.686;10.842;2023-09-08T01:59:32;14.95;;;11.65;;
23290;SDS011;11814;44.686;10.842;2023-09-08T02:01:57;14.23;;;10.88;;
23290;SDS011;11814;44.686;10.842;2023-09-08T02:04:23;17.00;;;11.68;;
23290;SDS011;11814;44.686;10.842;2023-09-08T02:06:49;16.55;;;11.05;;
23290;SDS011;11814;44.686;10.842;2023-09-08T02:09:14;15.82;;;11.65;;
23290;SDS011;11814;44.686;10.842;2023-09-08T02:11:40;14.68;;;11.13;;
23290;SDS011;11814;44.686;10.842;2023-09-08T02:14:07;13.80;;;9.88;;
23290;SDS011;11814;44.686;10.842;2023-09-08T02:16:32;12.57;;;10.15;;
23290;SDS011;11814;44.686;10.842;2023-09-08T02:18:58;15.15;;;10.82;;
23290;SDS011;11814;44.686;10.842;2023-09-08T02:21:23;15.73;;;10.48;;
23290;SDS011;11814;44.686;10.842;2023-09-08T02:23:49;15.40;;;11.10;;
23290;SDS011;11814;44.686;10.842;2023-09-08T02:26:15;11.65;;;10.45;;
23290;SDS011;11814;44.686;10.842;2023-09-08T02:28:41;11.38;;;10.20;;
23290;SDS011;11814;44.686;10.842;2023-09-08T02:31:06;11.20;;;9.77;;
23290;SDS011;11814;44.686;10.842;2023-09-08T02:33:32;13.13;;;10.43;;
23290;SDS011;11814;44.686;10.842;2023-09-08T02:36:01;13.63;;;9.73;;
23290;SDS011;11814;44.686;10.842;2023-09-08T02:38:33;17.98;;;10.48;;
23290;SDS011;11814;44.686;10.842;2023-09-08T02:40:58;16.98;;;10.50;;
23290;SDS011;11814;44.686;10.842;2023-09-08T02:43:24;12.27;;;10.30;;
23290;SDS011;11814;44.686;10.842;2023-09-08T02:45:50;16.35;;;11.35;;
23290;SDS011;11814;44.686;10.842;2023-09-08T02:48:15;12.98;;;10.07;;
23290;SDS011;11814;44.686;10.842;2023-09-08T02:50:41;12.57;;;9.88;;
23290;SDS011;11814;44.686;10.842;2023-09-08T02:53:08;16.50;;;10.32;;
23290;SDS011;11814;44.686;10.842;2023-09-08T02:55:34;11.80;;;10.50;;
23290;SDS011;11814;44.686;10.842;2023-09-08T02:58:00;14.15;;;10.73;;
23290;SDS011;11814;44.686;10.842;2023-09-08T03:00:25;16.40;;;11.68;;
23290;SDS011;11814;44.686;10.842;2023-09-08T03:02:51;12.35;;;10.75;;
23290;SDS011;11814;44.686;10.842;2023-09-08T03:05:18;12.85;;;10.85;;
23290;SDS011;11814;44.686;10.842;2023-09-08T03:07:47;14.02;;;10.82;;
23290;SDS011;11814;44.686;10.842;2023-09-08T03:10:13;14.82;;;11.48;;
23290;SDS011;11814;44.686;10.842;2023-09-08T03:12:38;16.83;;;12.20;;
23290;SDS011;11814;44.686;10.842;2023-09-08T03:15:04;15.38;;;11.48;;
23290;SDS011;11814;44.686;10.842;2023-09-08T03:17:30;13.52;;;11.60;;
23290;SDS011;11814;44.686;10.842;2023-09-08T03:19:56;21.00;;;12.93;;
23290;SDS011;11814;44.686;10.842;2023-09-08T03:22:22;18.70;;;12.35;;
23290;SDS011;11814;44.686;10.842;2023-09-08T03:24:49;15.05;;;11.82;;
23290;SDS011;11814;44.686;10.842;2023-09-08T03:27:15;14.02;;;12.63;;
23290;SDS011;11814;44.686;10.842;2023-09-08T03:29:41;14.40;;;12.32;;
23290;SDS011;11814;44.686;10.842;2023-09-08T03:32:06;14.43;;;11.40;;
23290;SDS011;11814;44.686;10.842;2023-09-08T03:34:32;17.00;;;11.15;;
23290;SDS011;11814;44.686;10.842;2023-09-08T03:36:59;13.20;;;11.73;;
23290;SDS011;11814;44.686;10.842;2023-09-08T03:39:24;16.85;;;14.18;;
23290;SDS011;11814;44.686;10.842;2023-09-08T03:41:50;16.95;;;13.35;;
23290;SDS011;11814;44.686;10.842;2023-09-08T03:44:15;14.27;;;12.77;;
23290;SDS011;11814;44.686;10.842;2023-09-08T03:46:41;15.18;;;12.77;;
23290;SDS011;11814;44.686;10.842;2023-09-08T03:49:07;19.13;;;13.65;;
23290;SDS011;11814;44.686;10.842;2023-09-08T03:51:33;15.73;;;14.02;;
23290;SDS011;11814;44.686;10.842;2023-09-08T03:53:58;15.88;;;14.07;;
23290;SDS011;11814;44.686;10.842;2023-09-08T03:56:25;17.52;;;13.68;;
23290;SDS011;11814;44.686;10.842;2023-09-08T03:58:51;18.27;;;14.35;;
23290;SDS011;11814;44.686;10.842;2023-09-08T04:01:16;19.35;;;12.48;;
23290;SDS011;11814;44.686;10.842;2023-09-08T04:03:42;17.17;;;14.63;;
23290;SDS011;11814;44.686;10.842;2023-09-08T04:06:08;16.60;;;14.05;;
23290;SDS011;11814;44.686;10.842;2023-09-08T04:08:34;19.52;;;12.98;;
23290;SDS011;11814;44.686;10.842;2023-09-08T04:11:00;16.20;;;14.55;;
23290;SDS011;11814;44.686;10.842;2023-09-08T04:13:25;15.25;;;12.98;;
23290;SDS011;11814;44.686;10.842;2023-09-08T04:15:51;17.90;;;13.25;;
23290;SDS011;11814;44.686;10.842;2023-09-08T04:18:17;17.02;;;14.30;;
23290;SDS011;11814;44.686;10.842;2023-09-08T04:20:42;18.67;;;14.57;;
23290;SDS011;11814;44.686;10.842;2023-09-08T04:23:08;16.23;;;14.05;;
23290;SDS011;11814;44.686;10.842;2023-09-08T04:25:34;16.77;;;13.93;;
23290;SDS011;11814;44.686;10.842;2023-09-08T04:28:01;16.40;;;14.60;;
23290;SDS011;11814;44.686;10.842;2023-09-08T04:30:27;16.48;;;14.55;;
23290;SDS011;11814;44.686;10.842;2023-09-08T04:32:53;18.85;;;14.23;;
23290;SDS011;11814;44.686;10.842;2023-09-08T04:35:18;17.13;;;14.38;;
23290;SDS011;11814;44.686;10.842;2023-09-08T04:37:44;19.75;;;13.98;;
23290;SDS011;11814;44.686;10.842;2023-09-08T04:40:09;16.98;;;13.88;;
23290;SDS011;11814;44.686;10.842;2023-09-08T04:42:35;14.35;;;12.88;;
23290;SDS011;11814;44.686;10.842;2023-09-08T04:45:01;16.95;;;13.05;;
23290;SDS011;11814;44.686;10.842;2023-09-08T04:47:27;15.77;;;13.07;;
23290;SDS011;11814;44.686;10.842;2023-09-08T04:49:52;16.42;;;14.65;;
23290;SDS011;11814;44.686;10.842;2023-09-08T04:52:18;19.42;;;14.82;;
23290;SDS011;11814;44.686;10.842;2023-09-08T04:54:43;17.48;;;14.15;;
23290;SDS011;11814;44.686;10.842;2023-09-08T04:57:09;14.80;;;13.30;;
23290;SDS011;11814;44.686;10.842;2023-09-08T04:59:35;18.33;;;14.23;;
23290;SDS011;11814;44.686;10.842;2023-09-08T05:02:02;15.38;;;13.43;;
23290;SDS011;11814;44.686;10.842;2023-09-08T05:04:28;18.33;;;14.18;;
23290;SDS011;11814;44.686;10.842;2023-09-08T05:06:53;13.48;;;12.10;;
23290;SDS011;11814;44.686;10.842;2023-09-08T05:09:19;20.42;;;14.52;;
23290;SDS011;11814;44.686;10.842;2023-09-08T05:11:44;19.98;;;15.20;;
23290;SDS011;11814;44.686;10.842;2023-09-08T05:14:10;21.85;;;17.08;;
23290;SDS011;11814;44.686;10.842;2023-09-08T05:16:36;22.77;;;17.40;;
23290;SDS011;11814;44.686;10.842;2023-09-08T05:19:04;21.60;;;18.52;;
23290;SDS011;11814;44.686;10.842;2023-09-08T05:21:31;20.27;;;15.95;;
23290;SDS011;11814;44.686;10.842;2023-09-08T05:23:57;18.83;;;14.00;;
23290;SDS011;11814;44.686;10.842;2023-09-08T05:26:23;15.77;;;12.80;;
23290;SDS011;11814;44.686;10.842;2023-09-08T05:28:49;14.70;;;11.27;;
23290;SDS011;11814;44.686;10.842;2023-09-08T05:31:14;13.95;;;11.32;;
23290;SDS011;11814;44.686;10.842;2023-09-08T05:33:40;13.70;;;10.93;;
23290;SDS011;11814;44.686;10.842;2023-09-08T05:36:05;16.50;;;11.90;;
23290;SDS011;11814;44.686;10.842;2023-09-08T05:38:31;12.32;;;10.98;;
23290;SDS011;11814;44.686;10.842;2023-09-08T05:40:57;14.50;;;10.55;;
23290;SDS011;11814;44.686;10.842;2023-09-08T05:43:24;16.80;;;11.23;;
23290;SDS011;11814;44.686;10.842;2023-09-08T05:45:50;14.63;;;11.25;;
23290;SDS011;11814;44.686;10.842;2023-09-08T05:48:16;17.88;;;12.57;;
23290;SDS011;11814;44.686;10.842;2023-09-08T05:50:42;14.70;;;12.00;;
23290;SDS011;11814;44.686;10.842;2023-09-08T05:53:07;14.60;;;11.55;;
23290;SDS011;11814;44.686;10.842;2023-09-08T05:55:33;12.00;;;10.50;;
23290;SDS011;11814;44.686;10.842;2023-09-08T05:57:59;13.98;;;11.27;;
23290;SDS011;11814;44.686;10.842;2023-09-08T06:00:24;13.35;;;11.65;;
23290;SDS011;11814;44.686;10.842;2023-09-08T06:02:50;18.67;;;11.10;;
23290;SDS011;11814;44.686;10.842;2023-09-08T06:05:16;17.17;;;12.52;;
23290;SDS011;11814;44.686;10.842;2023-09-08T06:07:42;19.45;;;13.70;;
23290;SDS011;11814;44.686;10.842;2023-09-08T06:10:08;25.30;;;14.75;;
23290;SDS011;11814;44.686;10.842;2023-09-08T06:12:34;19.05;;;13.82;;
23290;SDS011;11814;44.686;10.842;2023-09-08T06:14:59;26.70;;;15.18;;
23290;SDS011;11814;44.686;10.842;2023-09-08T06:17:26;23.85;;;14.68;;
23290;SDS011;11814;44.686;10.842;2023-09-08T06:19:52;19.98;;;16.75;;
23290;SDS011;11814;44.686;10.842;2023-09-08T06:22:18;29.15;;;16.33;;
23290;SDS011;11814;44.686;10.842;2023-09-08T06:24:43;25.88;;;17.75;;
23290;SDS011;11814;44.686;10.842;2023-09-08T06:27:09;26.20;;;18.10;;
23290;SDS011;11814;44.686;10.842;2023-09-08T06:29:36;21.83;;;16.98;;
23290;SDS011;11814;44.686;10.842;2023-09-08T06:32:03;19.95;;;15.85;;
23290;SDS011;11814;44.686;10.842;2023-09-08T06:34:29;18.40;;;14.95;;
23290;SDS011;11814;44.686;10.842;2023-09-08T06:36:55;21.65;;;13.00;;
23290;SDS011;11814;44.686;10.842;2023-09-08T06:39:20;12.20;;;9.88;;
23290;SDS011;11814;44.686;10.842;2023-09-08T06:41:46;14.93;;;9.43;;
23290;SDS011;11814;44.686;10.842;2023-09-08T06:44:11;10.90;;;9.07;;
23290;SDS011;11814;44.686;10.842;2023-09-08T06:46:37;11.55;;;9.10;;
23290;SDS011;11814;44.686;10.842;2023-09-08T06:49:03;12.05;;;8.65;;
23290;SDS011;11814;44.686;10.842;2023-09-08T06:51:28;13.93;;;8.57;;
23290;SDS011;11814;44.686;10.842;2023-09-08T06:53:54;13.60;;;8.95;;
23290;SDS011;11814;44.686;10.842;2023-09-08T06:56:21;13.15;;;8.82;;
23290;SDS011;11814;44.686;10.842;2023-09-08T06:58:47;12.98;;;9.18;;
23290;SDS011;11814;44.686;10.842;2023-09-08T07:01:13;14.10;;;8.90;;
23290;SDS011;11814;44.686;10.842;2023-09-08T07:03:38;14.27;;;9.32;;
23290;SDS011;11814;44.686;10.842;2023-09-08T07:06:04;15.32;;;9.13;;
23290;SDS011;11814;44.686;10.842;2023-09-08T07:08:30;12.80;;;8.75;;
23290;SDS011;11814;44.686;10.842;2023-09-08T07:10:55;9.30;;;7.78;;
23290;SDS011;11814;44.686;10.842;2023-09-08T07:13:21;16.55;;;7.72;;
23290;SDS011;11814;44.686;10.842;2023-09-08T07:15:46;10.80;;;7.32;;
23290;SDS011;11814;44.686;10.842;2023-09-08T07:18:12;11.55;;;7.93;;
23290;SDS011;11814;44.686;10.842;2023-09-08T07:20:38;12.35;;;8.18;;
23290;SDS011;11814;44.686;10.842;2023-09-08T07:23:03;9.23;;;7.38;;
23290;SDS011;11814;44.686;10.842;2023-09-08T07:25:29;10.00;;;7.57;;
23290;SDS011;11814;44.686;10.842;2023-09-08T07:27:54;12.50;;;8.45;;
23290;SDS011;11814;44.686;10.842;2023-09-08T07:30:20;18.48;;;8.75;;
23290;SDS011;11814;44.686;10.842;2023-09-08T07:32:46;10.55;;;7.18;;
23290;SDS011;11814;44.686;10.842;2023-09-08T07:35:12;10.95;;;8.27;;
23290;SDS011;11814;44.686;10.842;2023-09-08T07:37:40;12.23;;;8.77;;
23290;SDS011;11814;44.686;10.842;2023-09-08T07:40:07;17.83;;;8.88;;
23290;SDS011;11814;44.686;10.842;2023-09-08T07:42:34;14.18;;;9.70;;
23290;SDS011;11814;44.686;10.842;2023-09-08T07:45:00;15.80;;;9.52;;
23290;SDS011;11814;44.686;10.842;2023-09-08T07:47:25;16.50;;;9.90;;
23290;SDS011;11814;44.686;10.842;2023-09-08T07:49:51;20.08;;;10.98;;
23290;SDS011;11814;44.686;10.842;2023-09-08T07:52:16;18.55;;;10.23;;
23290;SDS011;11814;44.686;10.842;2023-09-08T07:54:42;15.98;;;10.15;;
23290;SDS011;11814;44.686;10.842;2023-09-08T07:57:08;16.85;;;10.20;;
23290;SDS011;11814;44.686;10.842;2023-09-08T07:59:33;15.18;;;9.63;;
23290;SDS011;11814;44.686;10.842;2023-09-08T08:01:59;12.35;;;9.32;;
23290;SDS011;11814;44.686;10.842;2023-09-08T08:04:25;17.73;;;9.93;;
23290;SDS011;11814;44.686;10.842;2023-09-08T08:06:51;12.60;;;9.20;;
23290;SDS011;11814;44.686;10.842;2023-09-08T08:09:16;13.73;;;9.35;;
23290;SDS011;11814;44.686;10.842;2023-09-08T08:11:42;16.48;;;9.27;;
23290;SDS011;11814;44.686;10.842;2023-09-08T08:14:08;12.43;;;8.25;;
23290;SDS011;11814;44.686;10.842;2023-09-08T08:16:33;11.23;;;8.60;;
23290;SDS011;11814;44.686;10.842;2023-09-08T08:18:59;11.55;;;8.32;;
23290;SDS011;11814;44.686;10.842;2023-09-08T08:21:25;9.90;;;7.15;;
23290;SDS011;11814;44.686;10.842;2023-09-08T08:23:51;12.02;;;6.88;;
23290;SDS011;11814;44.686;10.842;2023-09-08T08:26:16;12.30;;;7.18;;
23290;SDS011;11814;44.686;10.842;2023-09-08T08:28:43;11.30;;;7.13;;
23290;SDS011;11814;44.686;10.842;2023-09-08T08:31:09;10.00;;;6.35;;
23290;SDS011;11814;44.686;10.842;2023-09-08T08:33:34;11.05;;;7.03;;
23290;SDS011;11814;44.686;10.842;2023-09-08T08:36:00;8.18;;;6.38;;
23290;SDS011;11814;44.686;10.842;2023-09-08T08:38:26;11.32;;;6.80;;
23290;SDS011;11814;44.686;10.842;2023-09-08T08:40:52;12.27;;;6.28;;
23290;SDS011;11814;44.686;10.842;2023-09-08T08:43:17;14.57;;;6.40;;
23290;SDS011;11814;44.686;10.842;2023-09-08T08:45:44;11.25;;;6.55;;
23290;SDS011;11814;44.686;10.842;2023-09-08T08:48:13;8.02;;;6.22;;
23290;SDS011;11814;44.686;10.842;2023-09-08T08:50:39;7.82;;;6.43;;
23290;SDS011;11814;44.686;10.842;2023-09-08T08:53:08;8.15;;;5.80;;
23290;SDS011;11814;44.686;10.842;2023-09-08T08:55:34;8.07;;;5.93;;
23290;SDS011;11814;44.686;10.842;2023-09-08T08:58:04;10.07;;;5.47;;
23290;SDS011;11814;44.686;10.842;2023-09-08T09:00:30;8.65;;;5.05;;
23290;SDS011;11814;44.686;10.842;2023-09-08T09:03:00;9.00;;;4.50;;
23290;SDS011;11814;44.686;10.842;2023-09-08T09:05:26;6.50;;;4.30;;
23290;SDS011;11814;44.686;10.842;2023-09-08T09:07:52;9.93;;;4.40;;
23290;SDS011;11814;44.686;10.842;2023-09-08T09:10:20;7.05;;;4.40;;
23290;SDS011;11814;44.686;10.842;2023-09-08T09:12:46;8.10;;;4.47;;
23290;SDS011;11814;44.686;10.842;2023-09-08T09:15:11;6.25;;;4.78;;
23290;SDS011;11814;44.686;10.842;2023-09-08T09:17:37;9.60;;;4.70;;
23290;SDS011;11814;44.686;10.842;2023-09-08T09:20:11;7.32;;;4.25;;
23290;SDS011;11814;44.686;10.842;2023-09-08T09:22:38;6.15;;;3.95;;
23290;SDS011;11814;44.686;10.842;2023-09-08T09:25:03;6.78;;;3.85;;
23290;SDS011;11814;44.686;10.842;2023-09-08T09:27:32;9.30;;;4.00;;
23290;SDS011;11814;44.686;10.842;2023-09-08T09:30:00;11.05;;;4.35;;
23290;SDS011;11814;44.686;10.842;2023-09-08T09:32:26;4.90;;;3.67;;
23290;SDS011;11814;44.686;10.842;2023-09-08T09:34:54;9.73;;;3.95;;
23290;SDS011;11814;44.686;10.842;2023-09-08T09:37:21;6.55;;;3.85;;
23290;SDS011;11814;44.686;10.842;2023-09-08T09:39:51;7.03;;;4.15;;
23290;SDS011;11814;44.686;10.842;2023-09-08T09:42:18;7.25;;;4.00;;
23290;SDS011;11814;44.686;10.842;2023-09-08T09:44:49;8.15;;;3.88;;
23290;SDS011;11814;44.686;10.842;2023-09-08T09:47:16;6.30;;;3.88;;
23290;SDS011;11814;44.686;10.842;2023-09-08T09:49:46;8.40;;;4.40;;
23290;SDS011;11814;44.686;10.842;2023-09-08T09:52:13;7.90;;;3.55;;
23290;SDS011;11814;44.686;10.842;2023-09-08T09:54:45;10.45;;;4.10;;
23290;SDS011;11814;44.686;10.842;2023-09-08T09:57:14;5.03;;;4.00;;
23290;SDS011;11814;44.686;10.842;2023-09-08T09:59:43;8.02;;;4.18;;
23290;SDS011;11814;44.686;10.842;2023-09-08T10:02:12;7.85;;;4.32;;
23290;SDS011;11814;44.686;10.842;2023-09-08T10:04:42;6.80;;;4.30;;
23290;SDS011;11814;44.686;10.842;2023-09-08T10:07:08;9.10;;;4.22;;
23290;SDS011;11814;44.686;10.842;2023-09-08T10:09:35;6.65;;;4.00;;
23290;SDS011;11814;44.686;10.842;2023-09-08T10:12:04;7.72;;;3.80;;
23290;SDS011;11814;44.686;10.842;2023-09-08T10:14:31;13.30;;;4.32;;
23290;SDS011;11814;44.686;10.842;2023-09-08T10:17:00;9.38;;;4.25;;
23290;SDS011;11814;44.686;10.842;2023-09-08T10:19:27;7.70;;;4.28;;
23290;SDS011;11814;44.686;10.842;2023-09-08T10:21:54;9.45;;;3.88;;
23290;SDS011;11814;44.686;10.842;2023-09-08T10:24:27;13.43;;;4.30;;
23290;SDS011;11814;44.686;10.842;2023-09-08T10:27:11;6.55;;;4.45;;
23290;SDS011;11814;44.686;10.842;2023-09-08T10:29:37;8.60;;;3.80;;
23290;SDS011;11814;44.686;10.842;2023-09-08T10:32:04;6.47;;;4.32;;
23290;SDS011;11814;44.686;10.842;2023-09-08T10:34:31;6.55;;;3.80;;
23290;SDS011;11814;44.686;10.842;2023-09-08T10:36:59;7.15;;;3.88;;
23290;SDS011;11814;44.686;10.842;2023-09-08T10:39:32;10.32;;;4.10;;
23290;SDS011;11814;44.686;10.842;2023-09-08T10:44:55;9.40;;;4.35;;
23290;SDS011;11814;44.686;10.842;2023-09-08T10:47:23;6.10;;;3.88;;
23290;SDS011;11814;44.686;10.842;2023-09-08T10:49:50;11.13;;;4.22;;
23290;SDS011;11814;44.686;10.842;2023-09-08T10:52:20;9.73;;;4.30;;
23290;SDS011;11814;44.686;10.842;2023-09-08T10:54:47;6.85;;;4.53;;
23290;SDS011;11814;44.686;10.842;2023-09-08T10:57:18;7.90;;;4.93;;
23290;SDS011;11814;44.686;10.842;2023-09-08T10:59:55;7.72;;;4.72;;
23290;SDS011;11814;44.686;10.842;2023-09-08T11:02:37;8.27;;;4.88;;
23290;SDS011;11814;44.686;10.842;2023-09-08T11:05:06;12.63;;;4.70;;
23290;SDS011;11814;44.686;10.842;2023-09-08T11:07:38;8.30;;;4.47;;
23290;SDS011;11814;44.686;10.842;2023-09-08T11:10:05;6.28;;;5.00;;
23290;SDS011;11814;44.686;10.842;2023-09-08T11:12:32;10.43;;;5.10;;
23290;SDS011;11814;44.686;10.842;2023-09-08T11:14:59;5.07;;;4.40;;
23290;SDS011;11814;44.686;10.842;2023-09-08T11:17:33;10.38;;;4.38;;
23290;SDS011;11814;44.686;10.842;2023-09-08T11:20:04;7.97;;;5.13;;
23290;SDS011;11814;44.686;10.842;2023-09-08T11:22:35;9.40;;;5.25;;
23290;SDS011;11814;44.686;10.842;2023-09-08T11:25:06;8.02;;;5.20;;
23290;SDS011;11814;44.686;10.842;2023-09-08T11:27:33;9.75;;;5.40;;
23290;SDS011;11814;44.686;10.842;2023-09-08T11:29:59;6.88;;;5.15;;
23290;SDS011;11814;44.686;10.842;2023-09-08T11:32:31;7.57;;;4.60;;
23290;SDS011;11814;44.686;10.842;2023-09-08T11:35:01;6.15;;;4.32;;
23290;SDS011;11814;44.686;10.842;2023-09-08T11:37:34;8.00;;;4.80;;
23290;SDS011;11814;44.686;10.842;2023-09-08T11:40:01;6.30;;;4.68;;
23290;SDS011;11814;44.686;10.842;2023-09-08T11:42:28;6.88;;;4.55;;
23290;SDS011;11814;44.686;10.842;2023-09-08T11:44:54;11.45;;;5.10;;
23290;SDS011;11814;44.686;10.842;2023-09-08T11:47:22;12.55;;;5.28;;
23290;SDS011;11814;44.686;10.842;2023-09-08T11:49:48;9.95;;;5.18;;
23290;SDS011;11814;44.686;10.842;2023-09-08T11:52:17;8.55;;;4.78;;
23290;SDS011;11814;44.686;10.842;2023-09-08T11:54:43;9.10;;;5.28;;
23290;SDS011;11814;44.686;10.842;2023-09-08T11:57:09;10.52;;;5.05;;
23290;SDS011;11814;44.686;10.842;2023-09-08T11:59:37;5.53;;;4.60;;
23290;SDS011;11814;44.686;10.842;2023-09-08T12:02:04;7.68;;;4.72;;
23290;SDS011;11814;44.686;10.842;2023-09-08T12:04:30;9.82;;;4.95;;
23290;SDS011;11814;44.686;10.842;2023-09-08T12:06:59;5.93;;;5.05;;
23290;SDS011;11814;44.686;10.842;2023-09-08T12:09:25;8.25;;;5.28;;
23290;SDS011;11814;44.686;10.842;2023-09-08T12:11:51;7.38;;;5.20;;
23290;SDS011;11814;44.686;10.842;2023-09-08T12:14:17;8.52;;;5.72;;
23290;SDS011;11814;44.686;10.842;2023-09-08T12:16:42;6.47;;;5.10;;
23290;SDS011;11814;44.686;10.842;2023-09-08T12:19:09;7.80;;;5.18;;
23290;SDS011;11814;44.686;10.842;2023-09-08T12:21:58;11.65;;;5.90;;
23290;SDS011;11814;44.686;10.842;2023-09-08T12:27:19;6.90;;;5.50;;
23290;SDS011;11814;44.686;10.842;2023-09-08T12:30:00;6.15;;;5.35;;
23290;SDS011;11814;44.686;10.842;2023-09-08T12:32:28;9.90;;;5.63;;
23290;SDS011;11814;44.686;10.842;2023-09-08T12:34:55;6.18;;;4.85;;
23290;SDS011;11814;44.686;10.842;2023-09-08T12:37:22;9.40;;;5.07;;
23290;SDS011;11814;44.686;10.842;2023-09-08T12:39:48;6.03;;;5.20;;
23290;SDS011;11814;44.686;10.842;2023-09-08T12:42:14;7.28;;;4.53;;
23290;SDS011;11814;44.686;10.842;2023-09-08T12:44:40;8.00;;;4.70;;
23290;SDS011;11814;44.686;10.842;2023-09-08T12:47:06;7.30;;;4.88;;
23290;SDS011;11814;44.686;10.842;2023-09-08T12:49:32;10.05;;;4.93;;
23290;SDS011;11814;44.686;10.842;2023-09-08T12:51:57;8.00;;;5.07;;
23290;SDS011;11814;44.686;10.842;2023-09-08T12:54:24;7.05;;;4.75;;
23290;SDS011;11814;44.686;10.842;2023-09-08T12:56:49;6.65;;;4.47;;
23290;SDS011;11814;44.686;10.842;2023-09-08T12:59:16;9.32;;;4.72;;
23290;SDS011;11814;44.686;10.842;2023-09-08T13:01:41;7.78;;;5.10;;
23290;SDS011;11814;44.686;10.842;2023-09-08T13:04:07;9.07;;;5.28;;
23290;SDS011;11814;44.686;10.842;2023-09-08T13:06:33;12.60;;;5.45;;
23290;SDS011;11814;44.686;10.842;2023-09-08T13:09:00;9.00;;;4.60;;
23290;SDS011;11814;44.686;10.842;2023-09-08T13:11:26;6.43;;;4.60;;
23290;SDS011;11814;44.686;10.842;2023-09-08T13:13:53;8.40;;;5.13;;
23290;SDS011;11814;44.686;10.842;2023-09-08T13:16:18;8.57;;;4.40;;
23290;SDS011;11814;44.686;10.842;2023-09-08T13:18:44;8.57;;;5.03;;
23290;SDS011;11814;44.686;10.842;2023-09-08T13:21:10;9.02;;;4.50;;
23290;SDS011;11814;44.686;10.842;2023-09-08T13:23:36;10.32;;;4.68;;
23290;SDS011;11814;44.686;10.842;2023-09-08T13:26:02;7.90;;;4.70;;
23290;SDS011;11814;44.686;10.842;2023-09-08T13:28:27;7.35;;;4.30;;
23290;SDS011;11814;44.686;10.842;2023-09-08T13:30:53;6.15;;;4.18;;
23290;SDS011;11814;44.686;10.842;2023-09-08T13:33:18;8.00;;;4.13;;
23290;SDS011;11814;44.686;10.842;2023-09-08T13:35:45;11.77;;;4.68;;
23290;SDS011;11814;44.686;10.842;2023-09-08T13:38:10;7.68;;;4.45;;
23290;SDS011;11814;44.686;10.842;2023-09-08T13:40:36;8.30;;;4.65;;
23290;SDS011;11814;44.686;10.842;2023-09-08T13:43:02;9.43;;;5.18;;
23290;SDS011;11814;44.686;10.842;2023-09-08T13:45:27;8.07;;;5.15;;
23290;SDS011;11814;44.686;10.842;2023-09-08T13:47:53;7.80;;;4.22;;
23290;SDS011;11814;44.686;10.842;2023-09-08T13:50:19;7.50;;;4.78;;
23290;SDS011;11814;44.686;10.842;2023-09-08T13:52:44;10.05;;;4.63;;
23290;SDS011;11814;44.686;10.842;2023-09-08T13:55:10;6.63;;;4.60;;
23290;SDS011;11814;44.686;10.842;2023-09-08T13:57:36;6.07;;;4.50;;
23290;SDS011;11814;44.686;10.842;2023-09-08T14:00:02;6.32;;;4.40;;
23290;SDS011;11814;44.686;10.842;2023-09-08T14:02:28;6.68;;;3.88;;
23290;SDS011;11814;44.686;10.842;2023-09-08T14:04:54;7.70;;;4.07;;
23290;SDS011;11814;44.686;10.842;2023-09-08T14:07:20;4.70;;;3.75;;
23290;SDS011;11814;44.686;10.842;2023-09-08T14:09:45;7.20;;;3.97;;
23290;SDS011;11814;44.686;10.842;2023-09-08T14:12:11;7.43;;;4.70;;
23290;SDS011;11814;44.686;10.842;2023-09-08T14:14:37;7.57;;;4.03;;
23290;SDS011;11814;44.686;10.842;2023-09-08T14:17:03;7.53;;;4.18;;
23290;SDS011;11814;44.686;10.842;2023-09-08T14:19:28;7.57;;;4.38;;
23290;SDS011;11814;44.686;10.842;2023-09-08T14:21:54;11.25;;;4.13;;
23290;SDS011;11814;44.686;10.842;2023-09-08T14:24:20;7.97;;;3.97;;
23290;SDS011;11814;44.686;10.842;2023-09-08T14:26:46;8.82;;;4.13;;
23290;SDS011;11814;44.686;10.842;2023-09-08T14:29:12;7.13;;;4.47;;